sensor_id;sensor_type;location;lat;lon;timestamp;pressure;altitude;pressure_sealevel;temperature;humidity
71004;BME280;59025;42.050;-8.660;2022-07-06T00:00:01;101069.75;;;22.30;100.00
71004;BME280;59025;42.050;-8.660;2022-07-06T00:02:29;101065.81;;;22.28;100.00
71004;BME280;59025;42.050;-8.660;2022-07-06T00:04:56;101067.13;;;22.30;100.00
71004;BME280;59025;42.050;-8.660;2022-07-06T00:07:24;101069.50;;;22.32;100.00
71004;BME280;59025;42.050;-8.660;2022-07-06T00:09:53;101063.72;;;22.30;100.00
71004;BME280;59025;42.050;-8.660;2022-07-06T00:12:20;101059.78;;;22.27;100.00
71004;BME280;59025;42.050;-8.660;2022-07-06T00:14:48;101054.03;;;22.20;100.00
71004;BME280;59025;42.050;-8.660;2022-07-06T00:17:15;101058.50;;;22.10;100.00
71004;BME280;59025;42.050;-8.660;2022-07-06T00:19:43;101066.59;;;21.98;100.00
71004;BME280;59025;42.050;-8.660;2022-07-06T00:22:10;101064.75;;;21.89;100.00
71004;BME280;59025;42.050;-8.660;2022-07-06T00:24:38;101069.75;;;21.85;100.00
71004;BME280;59025;42.050;-8.660;2022-07-06T00:27:07;101082.06;;;21.80;100.00
71004;BME280;59025;42.050;-8.660;2022-07-06T00:29:35;101077.06;;;21.73;100.00
71004;BME280;59025;42.050;-8.660;2022-07-06T00:32:03;101081.19;;;21.64;100.00
71004;BME280;59025;42.050;-8.660;2022-07-06T00:34:30;101079.59;;;21.58;100.00
71004;BME280;59025;42.050;-8.660;2022-07-06T00:36:58;101082.50;;;21.52;100.00
71004;BME280;59025;42.050;-8.660;2022-07-06T00:39:25;101083.00;;;21.49;100.00
71004;BME280;59025;42.050;-8.660;2022-07-06T00:41:55;101083.50;;;21.51;100.00
71004;BME280;59025;42.050;-8.660;2022-07-06T00:44:24;101088.75;;;21.51;100.00
71004;BME280;59025;42.050;-8.660;2022-07-06T00:46:52;101081.16;;;21.49;100.00
71004;BME280;59025;42.050;-8.660;2022-07-06T00:49:19;101066.47;;;21.48;100.00
71004;BME280;59025;42.050;-8.660;2022-07-06T00:52:05;101078.28;;;21.46;100.00
71004;BME280;59025;42.050;-8.660;2022-07-06T00:54:32;101078.50;;;21.39;100.00
71004;BME280;59025;42.050;-8.660;2022-07-06T00:57:00;101078.50;;;21.34;100.00
71004;BME280;59025;42.050;-8.660;2022-07-06T00:59:29;101078.72;;;21.28;100.00
71004;BME280;59025;42.050;-8.660;2022-07-06T01:01:57;101096.25;;;21.22;100.00
71004;BME280;59025;42.050;-8.660;2022-07-06T01:04:25;101094.66;;;21.16;100.00
71004;BME280;59025;42.050;-8.660;2022-07-06T01:06:52;101097.75;;;21.08;100.00
71004;BME280;59025;42.050;-8.660;2022-07-06T01:09:20;101108.19;;;21.03;100.00
71004;BME280;59025;42.050;-8.660;2022-07-06T01:11:48;101111.81;;;20.97;100.00
71004;BME280;59025;42.050;-8.660;2022-07-06T01:14:16;101112.59;;;20.93;100.00
71004;BME280;59025;42.050;-8.660;2022-07-06T01:16:45;101110.50;;;20.90;100.00
71004;BME280;59025;42.050;-8.660;2022-07-06T01:19:13;101111.44;;;20.84;100.00
71004;BME280;59025;42.050;-8.660;2022-07-06T01:21:42;101111.72;;;20.82;100.00
71004;BME280;59025;42.050;-8.660;2022-07-06T01:24:09;101100.69;;;20.80;100.00
71004;BME280;59025;42.050;-8.660;2022-07-06T01:26:37;101096.75;;;20.78;100.00
71004;BME280;59025;42.050;-8.660;2022-07-06T01:29:05;101094.16;;;20.78;100.00
71004;BME280;59025;42.050;-8.660;2022-07-06T01:31:32;101089.19;;;20.76;100.00
71004;BME280;59025;42.050;-8.660;2022-07-06T01:34:00;101099.91;;;20.75;100.00
71004;BME280;59025;42.050;-8.660;2022-07-06T01:36:27;101103.00;;;20.72;100.00
71004;BME280;59025;42.050;-8.660;2022-07-06T01:38:56;101102.47;;;20.70;100.00
71004;BME280;59025;42.050;-8.660;2022-07-06T01:41:25;101099.81;;;20.65;100.00
71004;BME280;59025;42.050;-8.660;2022-07-06T01:43:52;101101.66;;;20.64;100.00
71004;BME280;59025;42.050;-8.660;2022-07-06T01:46:20;101102.16;;;20.61;100.00
71004;BME280;59025;42.050;-8.660;2022-07-06T01:48:48;101106.56;;;20.56;100.00
71004;BME280;59025;42.050;-8.660;2022-07-06T01:51:15;101114.09;;;20.52;100.00
71004;BME280;59025;42.050;-8.660;2022-07-06T01:53:43;101119.34;;;20.52;100.00
71004;BME280;59025;42.050;-8.660;2022-07-06T01:56:12;101121.94;;;20.52;100.00
71004;BME280;59025;42.050;-8.660;2022-07-06T01:58:40;101115.91;;;20.47;100.00
71004;BME280;59025;42.050;-8.660;2022-07-06T02:01:08;101116.16;;;20.45;100.00
71004;BME280;59025;42.050;-8.660;2022-07-06T02:03:36;101119.56;;;20.46;100.00
71004;BME280;59025;42.050;-8.660;2022-07-06T02:06:04;101113.25;;;20.42;100.00
71004;BME280;59025;42.050;-8.660;2022-07-06T02:08:33;101119.53;;;20.41;100.00
71004;BME280;59025;42.050;-8.660;2022-07-06T02:11:01;101122.38;;;20.39;100.00
71004;BME280;59025;42.050;-8.660;2022-07-06T02:13:30;101114.78;;;20.38;100.00
71004;BME280;59025;42.050;-8.660;2022-07-06T02:15:58;101115.06;;;20.36;100.00
71004;BME280;59025;42.050;-8.660;2022-07-06T02:18:25;101112.44;;;20.36;100.00
71004;BME280;59025;42.050;-8.660;2022-07-06T02:20:53;101109.81;;;20.36;100.00
71004;BME280;59025;42.050;-8.660;2022-07-06T02:23:20;101113.97;;;20.32;100.00
71004;BME280;59025;42.050;-8.660;2022-07-06T02:25:48;101118.09;;;20.28;100.00
71004;BME280;59025;42.050;-8.660;2022-07-06T02:28:15;101110.03;;;20.30;100.00
71004;BME280;59025;42.050;-8.660;2022-07-06T02:30:44;101113.41;;;20.30;100.00
71004;BME280;59025;42.050;-8.660;2022-07-06T02:33:11;101112.41;;;20.31;100.00
71004;BME280;59025;42.050;-8.660;2022-07-06T02:35:39;101113.94;;;20.27;100.00
71004;BME280;59025;42.050;-8.660;2022-07-06T02:38:08;101108.66;;;20.22;100.00
71004;BME280;59025;42.050;-8.660;2022-07-06T02:40:36;101103.13;;;20.19;100.00
71004;BME280;59025;42.050;-8.660;2022-07-06T02:43:04;101106.78;;;20.18;100.00
71004;BME280;59025;42.050;-8.660;2022-07-06T02:45:31;101095.78;;;20.16;100.00
71004;BME280;59025;42.050;-8.660;2022-07-06T02:48:00;101106.50;;;20.14;100.00
71004;BME280;59025;42.050;-8.660;2022-07-06T02:50:28;101113.25;;;20.10;100.00
71004;BME280;59025;42.050;-8.660;2022-07-06T02:52:55;101115.34;;;20.08;100.00
71004;BME280;59025;42.050;-8.660;2022-07-06T02:55:24;101118.09;;;20.02;100.00
71004;BME280;59025;42.050;-8.660;2022-07-06T02:57:51;101113.69;;;20.02;100.00
71004;BME280;59025;42.050;-8.660;2022-07-06T03:00:19;101126.97;;;20.01;100.00
71004;BME280;59025;42.050;-8.660;2022-07-06T03:02:46;101129.31;;;19.97;100.00
71004;BME280;59025;42.050;-8.660;2022-07-06T03:05:15;101126.94;;;19.96;100.00
71004;BME280;59025;42.050;-8.660;2022-07-06T03:07:43;101127.16;;;19.94;100.00
71004;BME280;59025;42.050;-8.660;2022-07-06T03:10:10;101130.28;;;19.91;100.00
71004;BME280;59025;42.050;-8.660;2022-07-06T03:12:38;101140.41;;;19.88;100.00
71004;BME280;59025;42.050;-8.660;2022-07-06T03:15:06;101136.28;;;19.92;100.00
71004;BME280;59025;42.050;-8.660;2022-07-06T03:17:35;101146.44;;;19.88;100.00
71004;BME280;59025;42.050;-8.660;2022-07-06T03:20:03;101149.84;;;19.89;100.00
71004;BME280;59025;42.050;-8.660;2022-07-06T03:22:32;101139.09;;;19.85;100.00
71004;BME280;59025;42.050;-8.660;2022-07-06T03:25:00;101153.19;;;19.84;100.00
71004;BME280;59025;42.050;-8.660;2022-07-06T03:27:27;101151.31;;;19.80;100.00
71004;BME280;59025;42.050;-8.660;2022-07-06T03:29:55;101148.16;;;19.78;100.00
71004;BME280;59025;42.050;-8.660;2022-07-06T03:32:22;101156.72;;;19.73;100.00
71004;BME280;59025;42.050;-8.660;2022-07-06T03:34:49;101164.25;;;19.70;100.00
71004;BME280;59025;42.050;-8.660;2022-07-06T03:37:17;101151.94;;;19.65;100.00
71004;BME280;59025;42.050;-8.660;2022-07-06T03:39:46;101151.94;;;19.65;100.00
71004;BME280;59025;42.050;-8.660;2022-07-06T03:42:13;101155.28;;;19.61;100.00
71004;BME280;59025;42.050;-8.660;2022-07-06T03:44:41;101170.38;;;19.59;100.00
71004;BME280;59025;42.050;-8.660;2022-07-06T03:47:08;101171.66;;;19.56;100.00
71004;BME280;59025;42.050;-8.660;2022-07-06T03:49:35;101171.91;;;19.55;100.00
71004;BME280;59025;42.050;-8.660;2022-07-06T03:52:03;101160.13;;;19.52;100.00
71004;BME280;59025;42.050;-8.660;2022-07-06T03:54:31;101165.84;;;19.49;100.00
71004;BME280;59025;42.050;-8.660;2022-07-06T03:57:00;101176.78;;;19.46;100.00
71004;BME280;59025;42.050;-8.660;2022-07-06T03:59:27;101179.38;;;19.46;100.00
71004;BME280;59025;42.050;-8.660;2022-07-06T04:01:55;101181.19;;;19.46;100.00
71004;BME280;59025;42.050;-8.660;2022-07-06T04:04:22;101176.44;;;19.43;100.00
71004;BME280;59025;42.050;-8.660;2022-07-06T04:06:49;101173.28;;;19.41;100.00
71004;BME280;59025;42.050;-8.660;2022-07-06T04:09:17;101174.09;;;19.41;100.00
71004;BME280;59025;42.050;-8.660;2022-07-06T04:11:44;101193.38;;;19.40;100.00
71004;BME280;59025;42.050;-8.660;2022-07-06T04:14:13;101177.16;;;19.38;100.00
71004;BME280;59025;42.050;-8.660;2022-07-06T04:16:41;101192.81;;;19.38;100.00
71004;BME280;59025;42.050;-8.660;2022-07-06T04:19:08;101186.56;;;19.39;100.00
71004;BME280;59025;42.050;-8.660;2022-07-06T04:21:36;101186.84;;;19.38;100.00
71004;BME280;59025;42.050;-8.660;2022-07-06T04:24:04;101191.03;;;19.39;100.00
71004;BME280;59025;42.050;-8.660;2022-07-06T04:26:31;101193.88;;;19.37;100.00
71004;BME280;59025;42.050;-8.660;2022-07-06T04:28:59;101182.31;;;19.33;100.00
71004;BME280;59025;42.050;-8.660;2022-07-06T04:31:28;101178.94;;;19.33;100.00
71004;BME280;59025;42.050;-8.660;2022-07-06T04:33:55;101198.47;;;19.30;100.00
71004;BME280;59025;42.050;-8.660;2022-07-06T04:36:22;101187.72;;;19.27;100.00
71004;BME280;59025;42.050;-8.660;2022-07-06T04:38:50;101185.81;;;19.22;100.00
71004;BME280;59025;42.050;-8.660;2022-07-06T04:41:17;101190.69;;;19.19;100.00
71004;BME280;59025;42.050;-8.660;2022-07-06T04:43:45;101191.97;;;19.16;100.00
71004;BME280;59025;42.050;-8.660;2022-07-06T04:46:12;101182.03;;;19.13;100.00
71004;BME280;59025;42.050;-8.660;2022-07-06T04:48:41;101188.75;;;19.09;100.00
71004;BME280;59025;42.050;-8.660;2022-07-06T04:51:08;101193.41;;;19.07;100.00
71004;BME280;59025;42.050;-8.660;2022-07-06T04:53:36;101188.13;;;19.02;100.00
71004;BME280;59025;42.050;-8.660;2022-07-06T04:56:04;101198.00;;;19.00;100.00
71004;BME280;59025;42.050;-8.660;2022-07-06T04:58:31;101200.38;;;19.02;100.00
71004;BME280;59025;42.050;-8.660;2022-07-06T05:00:59;101196.97;;;19.01;100.00
71004;BME280;59025;42.050;-8.660;2022-07-06T05:03:26;101199.59;;;19.01;100.00
71004;BME280;59025;42.050;-8.660;2022-07-06T05:05:55;101191.78;;;19.01;100.00
71004;BME280;59025;42.050;-8.660;2022-07-06T05:08:23;101191.78;;;19.01;100.00
71004;BME280;59025;42.050;-8.660;2022-07-06T05:10:50;101204.31;;;19.04;100.00
71004;BME280;59025;42.050;-8.660;2022-07-06T05:13:18;101205.34;;;19.03;100.00
71004;BME280;59025;42.050;-8.660;2022-07-06T05:15:45;101210.03;;;19.01;100.00
71004;BME280;59025;42.050;-8.660;2022-07-06T05:18:13;101205.81;;;19.00;100.00
71004;BME280;59025;42.050;-8.660;2022-07-06T05:20:40;101198.00;;;19.00;100.00
71004;BME280;59025;42.050;-8.660;2022-07-06T05:23:10;101196.97;;;19.01;100.00
71004;BME280;59025;42.050;-8.660;2022-07-06T05:25:37;101205.81;;;19.00;100.00
71004;BME280;59025;42.050;-8.660;2022-07-06T05:28:05;101214.22;;;19.02;100.00
71004;BME280;59025;42.050;-8.660;2022-07-06T05:30:32;101209.53;;;19.04;100.00
71004;BME280;59025;42.050;-8.660;2022-07-06T05:32:59;101204.84;;;19.06;100.00
71004;BME280;59025;42.050;-8.660;2022-07-06T05:35:27;101212.53;;;19.13;100.00
71004;BME280;59025;42.050;-8.660;2022-07-06T05:37:55;101203.84;;;19.24;100.00
71004;BME280;59025;42.050;-8.660;2022-07-06T05:40:24;101192.19;;;19.69;100.00
71004;BME280;59025;42.050;-8.660;2022-07-06T05:42:52;101180.66;;;20.08;100.00
71004;BME280;59025;42.050;-8.660;2022-07-06T05:45:19;101184.06;;;20.40;100.00
71004;BME280;59025;42.050;-8.660;2022-07-06T05:47:48;101169.84;;;20.58;100.00
71004;BME280;59025;42.050;-8.660;2022-07-06T05:50:33;101168.34;;;20.67;100.00
71004;BME280;59025;42.050;-8.660;2022-07-06T05:53:02;101157.22;;;20.86;100.00
71004;BME280;59025;42.050;-8.660;2022-07-06T05:55:31;101158.34;;;20.90;100.00
71004;BME280;59025;42.050;-8.660;2022-07-06T05:57:59;101151.69;;;21.14;100.00
71004;BME280;59025;42.050;-8.660;2022-07-06T06:00:27;101149.88;;;21.15;100.00
71004;BME280;59025;42.050;-8.660;2022-07-06T06:02:55;101155.78;;;20.64;100.00
71004;BME280;59025;42.050;-8.660;2022-07-06T06:05:22;101170.66;;;20.32;100.00
71004;BME280;59025;42.050;-8.660;2022-07-06T06:07:50;101178.03;;;20.08;100.00
71004;BME280;59025;42.050;-8.660;2022-07-06T06:10:19;101177.47;;;20.06;100.00
71004;BME280;59025;42.050;-8.660;2022-07-06T06:12:49;101176.84;;;19.99;100.00
71004;BME280;59025;42.050;-8.660;2022-07-06T06:15:17;101187.00;;;19.96;100.00
71004;BME280;59025;42.050;-8.660;2022-07-06T06:17:44;101181.03;;;20.00;100.00
71004;BME280;59025;42.050;-8.660;2022-07-06T06:20:13;101174.19;;;19.94;100.00
71004;BME280;59025;42.050;-8.660;2022-07-06T06:22:48;101173.09;;;19.90;100.00
71004;BME280;59025;42.050;-8.660;2022-07-06T06:25:17;101178.13;;;19.97;100.00
71004;BME280;59025;42.050;-8.660;2022-07-06T06:27:45;101188.88;;;20.00;100.00
71004;BME280;59025;42.050;-8.660;2022-07-06T06:30:14;101183.66;;;20.00;100.00
71004;BME280;59025;42.050;-8.660;2022-07-06T06:32:42;101170.59;;;20.00;100.00
71004;BME280;59025;42.050;-8.660;2022-07-06T06:35:09;101183.66;;;20.00;100.00
71004;BME280;59025;42.050;-8.660;2022-07-06T06:37:37;101188.50;;;20.08;100.00
71004;BME280;59025;42.050;-8.660;2022-07-06T06:40:06;101182.47;;;20.08;100.00
71004;BME280;59025;42.050;-8.660;2022-07-06T06:42:35;101186.16;;;20.12;100.00
71004;BME280;59025;42.050;-8.660;2022-07-06T06:45:04;101174.69;;;20.13;100.00
71004;BME280;59025;42.050;-8.660;2022-07-06T06:47:33;101187.97;;;20.11;100.00
71004;BME280;59025;42.050;-8.660;2022-07-06T06:50:01;101193.75;;;20.13;100.00
71004;BME280;59025;42.050;-8.660;2022-07-06T06:52:28;101199.59;;;20.20;100.00
71004;BME280;59025;42.050;-8.660;2022-07-06T06:54:56;101196.47;;;20.23;100.00
71004;BME280;59025;42.050;-8.660;2022-07-06T06:57:23;101204.94;;;20.35;100.00
71004;BME280;59025;42.050;-8.660;2022-07-06T06:59:50;101205.22;;;20.65;100.00
71004;BME280;59025;42.050;-8.660;2022-07-06T07:02:18;101193.94;;;20.91;100.00
71004;BME280;59025;42.050;-8.660;2022-07-06T07:04:47;101192.97;;;21.02;100.00
71004;BME280;59025;42.050;-8.660;2022-07-06T07:07:15;101181.13;;;21.93;100.00
71004;BME280;59025;42.050;-8.660;2022-07-06T07:09:42;101151.22;;;23.14;100.00
71004;BME280;59025;42.050;-8.660;2022-07-06T07:12:10;101147.31;;;23.75;100.00
71004;BME280;59025;42.050;-8.660;2022-07-06T07:14:38;101147.09;;;24.15;100.00
71004;BME280;59025;42.050;-8.660;2022-07-06T07:17:05;101141.22;;;24.61;100.00
71004;BME280;59025;42.050;-8.660;2022-07-06T07:19:32;101132.53;;;25.36;100.00
71004;BME280;59025;42.050;-8.660;2022-07-06T07:22:01;101132.03;;;25.34;100.00
71004;BME280;59025;42.050;-8.660;2022-07-06T07:24:29;101136.28;;;25.30;100.00
71004;BME280;59025;42.050;-8.660;2022-07-06T07:26:56;101121.47;;;25.76;100.00
71004;BME280;59025;42.050;-8.660;2022-07-06T07:29:24;101132.72;;;26.19;100.00
71004;BME280;59025;42.050;-8.660;2022-07-06T07:31:51;101137.13;;;26.23;100.00
71004;BME280;59025;42.050;-8.660;2022-07-06T07:34:19;101130.28;;;26.54;100.00
71004;BME280;59025;42.050;-8.660;2022-07-06T07:36:46;101135.50;;;26.41;100.00
71004;BME280;59025;42.050;-8.660;2022-07-06T07:39:15;101123.94;;;26.55;100.00
71004;BME280;59025;42.050;-8.660;2022-07-06T07:41:42;101128.97;;;27.11;100.00
71004;BME280;59025;42.050;-8.660;2022-07-06T07:44:10;101128.88;;;27.16;100.00
71004;BME280;59025;42.050;-8.660;2022-07-06T07:46:37;101126.69;;;26.64;100.00
71004;BME280;59025;42.050;-8.660;2022-07-06T07:49:05;101141.00;;;27.03;100.00
71004;BME280;59025;42.050;-8.660;2022-07-06T07:51:33;101131.81;;;27.28;100.00
71004;BME280;59025;42.050;-8.660;2022-07-06T07:54:00;101144.47;;;27.17;100.00
71004;BME280;59025;42.050;-8.660;2022-07-06T07:56:29;101138.97;;;27.27;100.00
71004;BME280;59025;42.050;-8.660;2022-07-06T07:58:56;101133.97;;;27.88;100.00
71004;BME280;59025;42.050;-8.660;2022-07-06T08:01:24;101133.25;;;28.18;100.00
71004;BME280;59025;42.050;-8.660;2022-07-06T08:03:51;101132.09;;;27.89;100.00
71004;BME280;59025;42.050;-8.660;2022-07-06T08:06:19;101128.66;;;27.88;100.00
71004;BME280;59025;42.050;-8.660;2022-07-06T08:08:46;101123.06;;;27.54;100.00
71004;BME280;59025;42.050;-8.660;2022-07-06T08:11:13;101119.19;;;27.74;100.00
71004;BME280;59025;42.050;-8.660;2022-07-06T08:13:42;101120.91;;;27.56;100.00
71004;BME280;59025;42.050;-8.660;2022-07-06T08:16:10;101127.47;;;27.94;100.00
71004;BME280;59025;42.050;-8.660;2022-07-06T08:18:37;101120.84;;;27.83;100.00
71004;BME280;59025;42.050;-8.660;2022-07-06T08:21:05;101123.63;;;28.22;100.00
71004;BME280;59025;42.050;-8.660;2022-07-06T08:23:32;101121.72;;;28.97;100.00
71004;BME280;59025;42.050;-8.660;2022-07-06T08:26:01;101129.22;;;28.73;100.00
71004;BME280;59025;42.050;-8.660;2022-07-06T08:28:29;101126.19;;;29.53;100.00
71004;BME280;59025;42.050;-8.660;2022-07-06T08:30:58;101139.69;;;29.17;100.00
71004;BME280;59025;42.050;-8.660;2022-07-06T08:33:25;101138.53;;;29.91;100.00
71004;BME280;59025;42.050;-8.660;2022-07-06T08:35:52;101141.13;;;29.49;100.00
71004;BME280;59025;42.050;-8.660;2022-07-06T08:38:20;101133.06;;;30.05;100.00
71004;BME280;59025;42.050;-8.660;2022-07-06T08:40:49;101139.28;;;28.93;100.00
71004;BME280;59025;42.050;-8.660;2022-07-06T08:43:17;101133.78;;;29.20;100.00
71004;BME280;59025;42.050;-8.660;2022-07-06T08:45:46;101143.00;;;29.31;100.00
71004;BME280;59025;42.050;-8.660;2022-07-06T08:48:18;101143.19;;;29.43;100.00
71004;BME280;59025;42.050;-8.660;2022-07-06T08:50:46;101136.38;;;29.85;100.00
71004;BME280;59025;42.050;-8.660;2022-07-06T08:53:16;101148.88;;;29.20;100.00
71004;BME280;59025;42.050;-8.660;2022-07-06T08:55:44;101141.50;;;29.64;100.00
71004;BME280;59025;42.050;-8.660;2022-07-06T08:58:11;101151.34;;;30.06;100.00
71004;BME280;59025;42.050;-8.660;2022-07-06T09:00:41;101137.91;;;30.03;100.00
71004;BME280;59025;42.050;-8.660;2022-07-06T09:03:11;101158.06;;;29.70;100.00
71004;BME280;59025;42.050;-8.660;2022-07-06T09:05:44;101144.19;;;29.81;100.00
71004;BME280;59025;42.050;-8.660;2022-07-06T09:08:12;101146.50;;;29.83;100.00
71004;BME280;59025;42.050;-8.660;2022-07-06T09:10:40;101150.56;;;29.89;100.00
71004;BME280;59025;42.050;-8.660;2022-07-06T09:13:08;101151.13;;;30.54;100.00
71004;BME280;59025;42.050;-8.660;2022-07-06T09:15:37;101149.22;;;30.71;100.00
71004;BME280;59025;42.050;-8.660;2022-07-06T09:18:05;101148.50;;;30.91;100.00
71004;BME280;59025;42.050;-8.660;2022-07-06T09:20:33;101165.00;;;30.59;100.00
71004;BME280;59025;42.050;-8.660;2022-07-06T09:23:05;101161.41;;;30.72;100.00
71004;BME280;59025;42.050;-8.660;2022-07-06T09:25:33;101148.78;;;31.56;100.00
71004;BME280;59025;42.050;-8.660;2022-07-06T09:28:03;101161.22;;;32.05;100.00
71004;BME280;59025;42.050;-8.660;2022-07-06T09:30:31;101164.50;;;32.23;100.00
71004;BME280;59025;42.050;-8.660;2022-07-06T09:32:58;101160.13;;;32.27;100.00
71004;BME280;59025;42.050;-8.660;2022-07-06T09:35:27;101156.97;;;32.69;99.66
71004;BME280;59025;42.050;-8.660;2022-07-06T09:38:04;101166.88;;;32.81;96.45
71004;BME280;59025;42.050;-8.660;2022-07-06T09:40:33;101162.31;;;33.41;93.58
71004;BME280;59025;42.050;-8.660;2022-07-06T09:43:11;101157.81;;;33.81;93.85
71004;BME280;59025;42.050;-8.660;2022-07-06T09:45:41;101164.81;;;34.01;91.50
71004;BME280;59025;42.050;-8.660;2022-07-06T09:48:10;101165.41;;;33.95;94.68
71004;BME280;59025;42.050;-8.660;2022-07-06T09:50:39;101163.66;;;33.87;96.45
71004;BME280;59025;42.050;-8.660;2022-07-06T09:53:08;101170.38;;;33.81;93.73
71004;BME280;59025;42.050;-8.660;2022-07-06T09:55:35;101169.56;;;33.41;95.83
71004;BME280;59025;42.050;-8.660;2022-07-06T09:58:03;101165.41;;;32.71;98.08
71004;BME280;59025;42.050;-8.660;2022-07-06T10:00:31;101151.50;;;32.21;100.00
71004;BME280;59025;42.050;-8.660;2022-07-06T10:03:00;101154.34;;;32.04;100.00
71004;BME280;59025;42.050;-8.660;2022-07-06T10:05:27;101156.13;;;31.80;100.00
71004;BME280;59025;42.050;-8.660;2022-07-06T10:07:57;101156.31;;;31.75;100.00
71004;BME280;59025;42.050;-8.660;2022-07-06T10:10:28;101152.78;;;32.36;100.00
71004;BME280;59025;42.050;-8.660;2022-07-06T10:12:57;101149.31;;;33.04;100.00
71004;BME280;59025;42.050;-8.660;2022-07-06T10:15:26;101154.19;;;32.66;100.00
71004;BME280;59025;42.050;-8.660;2022-07-06T10:17:55;101154.97;;;33.50;96.65
71004;BME280;59025;42.050;-8.660;2022-07-06T10:20:22;101151.81;;;34.00;93.89
71004;BME280;59025;42.050;-8.660;2022-07-06T10:22:50;101152.72;;;34.19;93.34
71004;BME280;59025;42.050;-8.660;2022-07-06T10:25:18;101163.47;;;33.80;95.22
71004;BME280;59025;42.050;-8.660;2022-07-06T10:27:48;101161.66;;;34.11;93.13
71004;BME280;59025;42.050;-8.660;2022-07-06T10:30:15;101164.25;;;33.29;95.70
71004;BME280;59025;42.050;-8.660;2022-07-06T10:32:44;101161.66;;;32.96;98.75
71004;BME280;59025;42.050;-8.660;2022-07-06T10:35:13;101147.66;;;33.35;98.67
71004;BME280;59025;42.050;-8.660;2022-07-06T10:37:41;101158.34;;;34.02;91.77
71004;BME280;59025;42.050;-8.660;2022-07-06T10:40:09;101163.56;;;34.38;89.56
71004;BME280;59025;42.050;-8.660;2022-07-06T10:42:58;101175.97;;;34.62;87.70
71004;BME280;59025;42.050;-8.660;2022-07-06T10:45:50;101181.78;;;34.95;85.19
71004;BME280;59025;42.050;-8.660;2022-07-06T10:48:20;101197.44;;;34.07;90.57
71004;BME280;59025;42.050;-8.660;2022-07-06T10:50:50;101180.25;;;34.35;91.26
71004;BME280;59025;42.050;-8.660;2022-07-06T10:53:21;101179.50;;;34.50;90.24
71004;BME280;59025;42.050;-8.660;2022-07-06T10:55:51;101175.66;;;34.20;90.82
71004;BME280;59025;42.050;-8.660;2022-07-06T10:58:41;101177.25;;;34.37;93.16
71004;BME280;59025;42.050;-8.660;2022-07-06T11:01:09;101178.22;;;34.44;88.25
71004;BME280;59025;42.050;-8.660;2022-07-06T11:03:39;101173.72;;;34.33;89.27
71004;BME280;59025;42.050;-8.660;2022-07-06T11:06:10;101173.16;;;34.86;88.01
71004;BME280;59025;42.050;-8.660;2022-07-06T11:08:49;101164.50;;;35.08;86.88
71004;BME280;59025;42.050;-8.660;2022-07-06T11:11:18;101171.34;;;35.05;86.16
71004;BME280;59025;42.050;-8.660;2022-07-06T11:13:54;101166.78;;;34.90;86.25
71004;BME280;59025;42.050;-8.660;2022-07-06T11:16:23;101156.75;;;35.37;88.57
71004;BME280;59025;42.050;-8.660;2022-07-06T11:19:01;101173.81;;;35.14;87.09
71004;BME280;59025;42.050;-8.660;2022-07-06T11:21:34;101162.00;;;35.15;90.18
71004;BME280;59025;42.050;-8.660;2022-07-06T11:24:03;101157.38;;;34.65;91.21
71004;BME280;59025;42.050;-8.660;2022-07-06T11:26:31;101167.28;;;34.49;90.63
71004;BME280;59025;42.050;-8.660;2022-07-06T11:29:04;101154.50;;;34.74;88.01
71004;BME280;59025;42.050;-8.660;2022-07-06T11:31:34;101161.84;;;34.46;89.79
71004;BME280;59025;42.050;-8.660;2022-07-06T11:34:03;101167.34;;;34.37;89.30
71004;BME280;59025;42.050;-8.660;2022-07-06T11:36:31;101154.41;;;34.55;92.35
71004;BME280;59025;42.050;-8.660;2022-07-06T11:38:59;101152.88;;;34.38;90.93
71004;BME280;59025;42.050;-8.660;2022-07-06T11:41:27;101140.81;;;34.91;94.50
71004;BME280;59025;42.050;-8.660;2022-07-06T11:43:54;101147.78;;;35.45;89.48
71004;BME280;59025;42.050;-8.660;2022-07-06T11:46:25;101152.72;;;35.62;84.77
71004;BME280;59025;42.050;-8.660;2022-07-06T11:48:54;101155.66;;;35.23;86.15
71004;BME280;59025;42.050;-8.660;2022-07-06T11:51:23;101153.50;;;35.13;87.61
71004;BME280;59025;42.050;-8.660;2022-07-06T11:53:52;101140.50;;;35.46;88.76
71004;BME280;59025;42.050;-8.660;2022-07-06T11:56:20;101143.63;;;34.51;87.43
71004;BME280;59025;42.050;-8.660;2022-07-06T11:58:52;101143.63;;;34.36;87.04
71004;BME280;59025;42.050;-8.660;2022-07-06T12:01:21;101137.25;;;34.71;86.30
71004;BME280;59025;42.050;-8.660;2022-07-06T12:03:51;101130.38;;;34.86;85.66
71004;BME280;59025;42.050;-8.660;2022-07-06T12:06:19;101129.50;;;34.82;87.49
71004;BME280;59025;42.050;-8.660;2022-07-06T12:08:48;101127.34;;;34.56;88.40
71004;BME280;59025;42.050;-8.660;2022-07-06T12:11:23;101127.84;;;34.31;92.85
71004;BME280;59025;42.050;-8.660;2022-07-06T12:13:52;101114.88;;;34.02;93.89
71004;BME280;59025;42.050;-8.660;2022-07-06T12:16:20;101111.78;;;34.15;98.09
71004;BME280;59025;42.050;-8.660;2022-07-06T12:18:50;101106.47;;;34.31;98.19
71004;BME280;59025;42.050;-8.660;2022-07-06T12:21:18;101105.97;;;33.98;96.19
71004;BME280;59025;42.050;-8.660;2022-07-06T12:23:49;101105.81;;;34.06;93.12
71004;BME280;59025;42.050;-8.660;2022-07-06T12:26:19;101105.88;;;33.67;99.02
71004;BME280;59025;42.050;-8.660;2022-07-06T12:28:59;101098.97;;;33.66;100.00
71004;BME280;59025;42.050;-8.660;2022-07-06T12:31:35;101101.34;;;33.55;100.00
71004;BME280;59025;42.050;-8.660;2022-07-06T12:34:05;101102.97;;;33.20;100.00
71004;BME280;59025;42.050;-8.660;2022-07-06T12:36:42;101106.75;;;33.19;93.43
71004;BME280;59025;42.050;-8.660;2022-07-06T12:39:12;101091.72;;;33.27;100.00